Prabhu Sakhawat — AVES — position and weather

sailwx.info

Track history (hours):
 
Tides and Currents Weather Stations Pressure Air Temp Water Temp Dewpoint Dewpoint Depression Visibility Wind Speed Wind Dir Waves Ship Positions

Prabhu Sakhawat

Last reported at 2017-Oct-09 14:59 UTC. Time now 2017-Oct-22 05:01 UTC.
Position N 37°40' W 125°27'.
Warning: this ship's position is 12 days out of date.

Length 225 m; draft 11.9 m.

Type: Cargo ship. MMSI: 419099500.

Date/timePositionNaut miles runAvg speedWind from/ knotsBaromVisibWave heightAir tempDewpointWater temp
2017-Oct-09 14:59N 37°40' W 125°27'9 7.8
2017-Oct-09 13:51N 37°40' W 125°16'6 8.4
2017-Oct-09 13:08N 37°39' W 125°09'2 9.1
2017-Oct-09 12:58N 37°39' W 125°07'4 8.8
2017-Oct-09 12:30N 37°39' W 125°02'4 8.6
2017-Oct-09 12:00N 37°39' W 124°56'4 8.5
2017-Oct-09 11:30N 37°39' W 124°51'4 7.9
2017-Oct-09 11:00N 37°38' W 124°46'4 8.1
2017-Oct-09 10:30N 37°38' W 124°41'4 8.4
2017-Oct-09 10:00N 37°38' W 124°36'4 8.1
2017-Oct-09 09:30N 37°38' W 124°30'4 8.1
2017-Oct-09 09:00N 37°37' W 124°25'4 8.3
2017-Oct-09 08:30N 37°37' W 124°20'4 8.2
2017-Oct-09 08:00N 37°37' W 124°15'4 7.9
2017-Oct-09 07:30N 37°37' W 124°10'4 7.9
2017-Oct-09 07:00N 37°37' W 124°05'4 8.0
2017-Oct-09 06:30N 37°37' W 123°60'4 8.1
2017-Oct-09 06:00N 37°36' W 123°55'4 7.6
2017-Oct-09 05:30N 37°36' W 123°50'4 7.5
2017-Oct-09 05:00N 37°36' W 123°45'4 7.6
2017-Oct-09 04:30N 37°36' W 123°41'4 7.5
2017-Oct-09 04:00N 37°35' W 123°36'4 7.1
2017-Oct-09 03:30N 37°35' W 123°31'4 7.5
2017-Oct-09 03:00N 37°35' W 123°27'4 7.7
2017-Oct-09 02:30N 37°35' W 123°22'4 8.6
2017-Oct-09 02:00N 37°34' W 123°16'5 9.0
2017-Oct-09 01:30N 37°34' W 123°11'5 9.1
2017-Oct-09 01:00N 37°34' W 123°05'510.2
2017-Oct-09 00:30N 37°36' W 122°59'510.5
2017-Oct-09 00:00N 37°39' W 122°54'510.2
2017-Oct-08 23:30N 37°42' W 122°48'5 9.9
2017-Oct-08 23:00N 37°44' W 122°43'4 7.3
2017-Oct-08 22:30N 37°46' W 122°39'5 9.6
2017-Oct-08 22:00N 37°48' W 122°33'510.5
2017-Oct-08 21:30N 37°50' W 122°27'3 7.0
2017-Oct-08 21:00N 37°53' W 122°25'1 2.9
2017-Oct-08 20:30N 37°54' W 122°24'2 3.6
2017-Oct-08 20:00N 37°55' W 122°22'0 0.7
2017-Oct-08 19:28N 37°55' W 122°22'0 0.0
2017-Oct-08 18:58N 37°55' W 122°22'0 0.0
2017-Oct-08 18:28N 37°55' W 122°22'0 0.0
2017-Oct-08 17:58N 37°55' W 122°22'0 0.0
2017-Oct-08 17:28N 37°55' W 122°22'0 0.0
2017-Oct-08 16:55N 37°55' W 122°22'0 0.0
2017-Oct-08 16:28N 37°55' W 122°22'0 0.0
2017-Oct-08 15:58N 37°55' W 122°22'0 0.0
2017-Oct-08 15:28N 37°55' W 122°22'0 0.0
2017-Oct-08 14:58N 37°55' W 122°22'0 0.0
2017-Oct-08 14:28N 37°55' W 122°22'0 0.0
2017-Oct-08 13:55N 37°55' W 122°22'0 0.0
2017-Oct-08 13:28N 37°55' W 122°22'0 0.0
2017-Oct-08 12:58N 37°55' W 122°22'0 0.0
2017-Oct-08 12:28N 37°55' W 122°22'0 0.0
2017-Oct-08 11:58N 37°55' W 122°22'0 0.0
2017-Oct-08 11:28N 37°55' W 122°22'0 0.0
2017-Oct-08 10:58N 37°55' W 122°22'0 0.0
2017-Oct-08 10:28N 37°55' W 122°22'0 0.0
2017-Oct-08 09:58N 37°55' W 122°22'0 0.0
2017-Oct-08 09:28N 37°55' W 122°22'0 0.0
2017-Oct-08 08:58N 37°55' W 122°22'0 0.0
2017-Oct-08 08:25N 37°55' W 122°22'0 0.0
2017-Oct-08 07:58N 37°55' W 122°22'0 0.0
2017-Oct-08 07:28N 37°55' W 122°22'0 0.0
2017-Oct-08 06:58N 37°55' W 122°22'0 0.0
2017-Oct-08 06:28N 37°55' W 122°22'0 0.0
2017-Oct-08 05:58N 37°55' W 122°22'0 0.0
2017-Oct-08 05:28N 37°55' W 122°22'0 0.0
2017-Oct-08 04:58N 37°55' W 122°22'0 0.0
2017-Oct-08 04:28N 37°55' W 122°22'0 0.0
2017-Oct-08 03:58N 37°55' W 122°22'0 0.0
2017-Oct-08 03:28N 37°55' W 122°22'0 0.0
2017-Oct-08 02:58N 37°55' W 122°22'0 0.0
2017-Oct-08 02:28N 37°55' W 122°22'0 0.0
2017-Oct-08 01:58N 37°55' W 122°22'0 0.0
2017-Oct-08 01:28N 37°55' W 122°22'0 0.0
2017-Oct-08 00:58N 37°55' W 122°22'0 0.0
2017-Oct-08 00:28N 37°55' W 122°22'0 0.0
2017-Oct-07 23:58N 37°55' W 122°22'0 0.0
2017-Oct-07 23:28N 37°55' W 122°22'0 0.0
2017-Oct-07 22:58N 37°55' W 122°22'0 0.0
2017-Oct-07 22:19N 37°55' W 122°22'0 0.0
2017-Oct-07 21:58N 37°55' W 122°22'0 0.0
2017-Oct-07 21:25N 37°55' W 122°22'0 0.0
2017-Oct-07 20:49N 37°55' W 122°22'0 0.0
2017-Oct-07 20:28N 37°55' W 122°22'0 0.0
2017-Oct-07 19:58N 37°55' W 122°22'0 0.0
2017-Oct-07 19:13N 37°55' W 122°22'0 0.0
2017-Oct-07 18:55N 37°55' W 122°22'0 0.0
2017-Oct-07 18:28N 37°55' W 122°22'0 0.0
2017-Oct-07 17:49N 37°55' W 122°22'0 0.0
2017-Oct-07 17:28N 37°55' W 122°22'0 0.0
2017-Oct-07 16:55N 37°55' W 122°22'0 0.0
2017-Oct-07 16:25N 37°55' W 122°22'0 0.0
2017-Oct-07 15:55N 37°55' W 122°22'0 0.0
2017-Oct-07 15:28N 37°55' W 122°22'0 0.0
2017-Oct-07 14:58N 37°55' W 122°22'0 0.0
2017-Oct-07 14:28N 37°55' W 122°22'0 0.0
2017-Oct-07 13:55N 37°55' W 122°22'0 0.0
2017-Oct-07 13:22N 37°55' W 122°22'0 0.0
2017-Oct-07 12:55N 37°55' W 122°22'0 0.0
2017-Oct-07 12:22N 37°55' W 122°22'0 0.0
2017-Oct-07 11:55N 37°55' W 122°22'0 0.0
2017-Oct-07 11:28N 37°55' W 122°22'0 0.0
2017-Oct-07 10:58N 37°55' W 122°22'0 0.0
2017-Oct-07 10:28N 37°55' W 122°22'0 0.0
2017-Oct-07 09:58N 37°55' W 122°22'0 0.0
2017-Oct-07 09:28N 37°55' W 122°22'0 0.0
2017-Oct-07 08:58N 37°55' W 122°22'0 0.0
2017-Oct-07 08:28N 37°55' W 122°22'0 0.0
2017-Oct-07 07:58N 37°55' W 122°22'0 0.0
2017-Oct-07 07:19N 37°55' W 122°22'0 0.0
2017-Oct-07 06:58N 37°55' W 122°22'0 0.0
2017-Oct-07 06:28N 37°55' W 122°22'0 0.0
2017-Oct-07 05:58N 37°55' W 122°22'0 0.0
2017-Oct-07 05:25N 37°55' W 122°22'0 0.0
2017-Oct-07 04:58N 37°55' W 122°22'0 0.0
2017-Oct-07 04:28N 37°55' W 122°22'0 0.0
2017-Oct-07 03:58N 37°55' W 122°22'0 0.0
2017-Oct-07 03:28N 37°55' W 122°22'0 0.0
2017-Oct-07 02:58N 37°55' W 122°22'0 0.0
2017-Oct-07 02:28N 37°55' W 122°22'0 0.0
2017-Oct-07 01:52N 37°55' W 122°22'0 0.0
2017-Oct-07 01:25N 37°55' W 122°22'0 0.0
2017-Oct-07 00:58N 37°55' W 122°22'0 0.0
2017-Oct-07 00:28N 37°55' W 122°22'0 0.0
2017-Oct-06 23:55N 37°55' W 122°22'0 0.0
2017-Oct-06 23:22N 37°55' W 122°22'0 0.0
2017-Oct-06 22:49N 37°55' W 122°22'0 0.0
2017-Oct-06 22:28N 37°55' W 122°22'0 0.0
2017-Oct-06 21:58N 37°55' W 122°22'0 0.0
2017-Oct-06 21:28N 37°55' W 122°22'0 0.0
2017-Oct-06 20:58N 37°55' W 122°22'0 0.0
2017-Oct-06 20:25N 37°55' W 122°22'0 0.0
2017-Oct-06 19:58N 37°55' W 122°22'0 0.0
2017-Oct-06 19:25N 37°55' W 122°22'0 0.0
2017-Oct-06 18:58N 37°55' W 122°22'0 0.0
2017-Oct-06 18:28N 37°55' W 122°22'0 0.0
2017-Oct-06 17:58N 37°55' W 122°22'0 0.0
2017-Oct-06 17:28N 37°55' W 122°22'0 0.0
2017-Oct-06 16:58N 37°55' W 122°22'0 0.0
2017-Oct-06 16:28N 37°55' W 122°22'0 0.0
2017-Oct-06 15:58N 37°55' W 122°22'0 0.0
2017-Oct-06 15:28N 37°55' W 122°22'0 0.0
2017-Oct-06 14:58N 37°55' W 122°22'0 0.0
2017-Oct-06 14:28N 37°55' W 122°22'0 0.0
2017-Oct-06 13:58N 37°55' W 122°22'0 0.0
2017-Oct-06 13:28N 37°55' W 122°22'0 0.0
2017-Oct-06 12:58N 37°55' W 122°22'0 0.0
2017-Oct-06 12:28N 37°55' W 122°22'0 0.0
2017-Oct-06 11:58N 37°55' W 122°22'0 0.0
2017-Oct-06 11:28N 37°55' W 122°22'0 0.0
2017-Oct-06 10:58N 37°55' W 122°22'0 0.0
2017-Oct-06 10:28N 37°55' W 122°22'0 0.0
2017-Oct-06 09:58N 37°55' W 122°22'0 0.0
2017-Oct-06 09:28N 37°55' W 122°22'0 0.0
2017-Oct-06 08:58N 37°55' W 122°22'0 0.0
2017-Oct-06 08:28N 37°55' W 122°22'0 0.0
2017-Oct-06 07:58N 37°55' W 122°22'0 0.0
2017-Oct-06 07:28N 37°55' W 122°22'0 0.0
2017-Oct-06 06:58N 37°55' W 122°22'0 0.0
2017-Oct-06 06:28N 37°55' W 122°22'0 0.0
2017-Oct-06 05:58N 37°55' W 122°22'0 0.0
2017-Oct-06 05:28N 37°55' W 122°22'0 0.0
2017-Oct-06 04:55N 37°55' W 122°22'0 0.0
2017-Oct-06 04:28N 37°55' W 122°22'0 0.0
2017-Oct-06 03:58N 37°55' W 122°22'0 0.0
2017-Oct-06 03:28N 37°55' W 122°22'0 0.0
2017-Oct-06 02:58N 37°55' W 122°22'0 0.0
2017-Oct-06 02:28N 37°55' W 122°22'0 0.0
2017-Oct-06 01:58N 37°55' W 122°22'0 0.0
2017-Oct-06 01:28N 37°55' W 122°22'0 0.0
2017-Oct-06 00:58N 37°55' W 122°22'0 0.0
2017-Oct-06 00:28N 37°55' W 122°22'0 0.0
2017-Oct-05 23:58N 37°55' W 122°22'0 0.0
2017-Oct-05 23:28N 37°55' W 122°22'0 0.0
2017-Oct-05 22:58N 37°55' W 122°22'0 0.0
2017-Oct-05 22:28N 37°55' W 122°22'0 0.0
2017-Oct-05 21:58N 37°55' W 122°22'0 0.0
2017-Oct-05 21:28N 37°55' W 122°22'0 0.0
2017-Oct-05 20:58N 37°55' W 122°22'0 0.0
2017-Oct-05 20:28N 37°55' W 122°22'0 0.0
2017-Oct-05 19:58N 37°55' W 122°22'0 0.0
2017-Oct-05 19:28N 37°55' W 122°22'0 0.0
2017-Oct-05 18:52N 37°55' W 122°22'0 0.0
2017-Oct-05 18:28N 37°55' W 122°22'0 0.0
2017-Oct-05 17:58N 37°55' W 122°22'0 0.0
2017-Oct-05 17:28N 37°55' W 122°22'0 0.0
2017-Oct-05 17:01N 37°55' W 122°22'2 1.1
2017-Oct-05 15:30N 37°54' W 122°24'1 2.5
2017-Oct-05 15:01N 37°54' W 122°25'4 8.9
2017-Oct-05 14:31N 37°49' W 122°24'2 4.8
2017-Oct-05 14:01N 37°48' W 122°22'0 0.2
2017-Oct-05 13:28N 37°48' W 122°22'0 0.0
2017-Oct-05 12:58N 37°48' W 122°22'0 0.0
2017-Oct-05 12:28N 37°48' W 122°22'0 0.0
2017-Oct-05 11:58N 37°48' W 122°22'0 0.1
2017-Oct-05 11:28N 37°48' W 122°22'0 0.0
2017-Oct-05 10:58N 37°48' W 122°22'0 0.0
2017-Oct-05 10:28N 37°48' W 122°22'0 0.0
2017-Oct-05 09:58N 37°48' W 122°22'0 0.0
2017-Oct-05 09:28N 37°48' W 122°22'0 0.1
2017-Oct-05 08:58N 37°48' W 122°22'0 0.1
2017-Oct-05 08:28N 37°48' W 122°22'0 0.1
2017-Oct-05 07:58N 37°48' W 122°22'0 0.2
2017-Oct-05 07:28N 37°47' W 122°22'0 0.2
2017-Oct-05 06:58N 37°47' W 122°22'0 0.1
2017-Oct-05 06:25N 37°47' W 122°22'0 0.1
2017-Oct-05 05:58N 37°47' W 122°21'0 0.0
2017-Oct-05 05:28N 37°47' W 122°21'0 0.1
2017-Oct-05 04:58N 37°47' W 122°21'0 0.0
2017-Oct-05 04:28N 37°47' W 122°21'0 0.0
2017-Oct-05 03:58N 37°47' W 122°21'0 0.0
2017-Oct-05 03:28N 37°47' W 122°21'0 0.0
2017-Oct-05 02:58N 37°47' W 122°21'0 0.0
2017-Oct-05 02:28N 37°47' W 122°21'0 0.1
2017-Oct-05 01:58N 37°48' W 122°21'0 0.4
2017-Oct-05 01:28N 37°48' W 122°22'0 0.1
2017-Oct-05 00:58N 37°48' W 122°22'0 0.1
2017-Oct-05 00:28N 37°48' W 122°22'0 0.0
2017-Oct-04 23:58N 37°48' W 122°22'0 0.0
2017-Oct-04 23:28N 37°48' W 122°22'0 0.0
2017-Oct-04 22:58N 37°48' W 122°22'0 0.0
2017-Oct-04 22:28N 37°48' W 122°22'0 0.1
2017-Oct-04 21:58N 37°48' W 122°22'0 0.0
2017-Oct-04 21:28N 37°48' W 122°22'0 0.1
2017-Oct-04 20:58N 37°48' W 122°22'0 0.0
2017-Oct-04 20:28N 37°48' W 122°22'0 0.1
2017-Oct-04 19:58N 37°48' W 122°22'0 0.3
2017-Oct-04 19:28N 37°47' W 122°22'0 0.2
2017-Oct-04 18:58N 37°47' W 122°22'0 0.1
2017-Oct-04 18:28N 37°47' W 122°22'0 0.1
2017-Oct-04 17:58N 37°47' W 122°21'0 0.1
2017-Oct-04 17:28N 37°47' W 122°21'0 0.1
2017-Oct-04 16:58N 37°47' W 122°21'0 0.0
2017-Oct-04 16:28N 37°47' W 122°21'0 0.1
2017-Oct-04 15:58N 37°47' W 122°21'0 0.0
2017-Oct-04 15:28N 37°47' W 122°21'0 0.2
2017-Oct-04 14:58N 37°47' W 122°22'0 0.0
2017-Oct-04 14:28N 37°47' W 122°22'0 0.1
2017-Oct-04 13:58N 37°47' W 122°21'0 0.3
2017-Oct-04 13:28N 37°48' W 122°21'0 0.3
2017-Oct-04 12:58N 37°48' W 122°22'0 0.0
2017-Oct-04 12:28N 37°48' W 122°22'0 0.1
2017-Oct-04 11:58N 37°48' W 122°22'0 0.1
2017-Oct-04 11:28N 37°48' W 122°22'0 0.0
2017-Oct-04 10:58N 37°48' W 122°22'0 0.0
2017-Oct-04 10:28N 37°48' W 122°22'0 0.1
2017-Oct-04 09:58N 37°48' W 122°22'0 0.0
2017-Oct-04 09:28N 37°48' W 122°22'0 0.0
2017-Oct-04 08:58N 37°48' W 122°22'0 0.0
2017-Oct-04 08:28N 37°48' W 122°22'0 0.1
2017-Oct-04 07:58N 37°48' W 122°22'0 0.0
2017-Oct-04 07:28N 37°48' W 122°22'0 0.1
2017-Oct-04 06:58N 37°48' W 122°22'0 0.3
2017-Oct-04 06:28N 37°47' W 122°22'0 0.1
2017-Oct-04 05:58N 37°47' W 122°22'0 0.0
2017-Oct-04 05:28N 37°47' W 122°22'0 0.1
2017-Oct-04 04:58N 37°47' W 122°22'0 0.1
2017-Oct-04 04:28N 37°47' W 122°21'0 0.0
2017-Oct-04 03:58N 37°47' W 122°21'0 0.0
2017-Oct-04 03:28N 37°47' W 122°21'0 0.0
2017-Oct-04 02:58N 37°47' W 122°21'0 0.1
2017-Oct-04 02:28N 37°47' W 122°22'0 0.0
2017-Oct-04 01:58N 37°47' W 122°22'0 0.1
2017-Oct-04 01:25N 37°47' W 122°21'0 0.4
2017-Oct-04 00:58N 37°48' W 122°22'0 0.2
2017-Oct-04 00:28N 37°48' W 122°22'0 0.0
2017-Oct-03 23:58N 37°48' W 122°22'0 0.1
2017-Oct-03 23:25N 37°48' W 122°22'0 0.0
2017-Oct-03 22:58N 37°48' W 122°22'0 0.1
2017-Oct-03 22:28N 37°48' W 122°22'0 0.1
2017-Oct-03 21:58N 37°48' W 122°22'0 0.0
2017-Oct-03 21:28N 37°48' W 122°22'0 0.0
2017-Oct-03 20:58N 37°48' W 122°22'0 0.0
2017-Oct-03 20:28N 37°48' W 122°22'0 0.0
2017-Oct-03 19:58N 37°48' W 122°22'0 0.1
2017-Oct-03 19:28N 37°48' W 122°22'0 0.2
2017-Oct-03 18:58N 37°47' W 122°22'0 0.3
2017-Oct-03 18:28N 37°47' W 122°22'0 0.0
2017-Oct-03 17:58N 37°47' W 122°22'0 0.1
2017-Oct-03 17:28N 37°47' W 122°22'0 0.1
2017-Oct-03 16:58N 37°47' W 122°21'0 0.0
2017-Oct-03 16:28N 37°47' W 122°21'0 0.0
2017-Oct-03 15:58N 37°47' W 122°21'0 0.0
2017-Oct-03 15:28N 37°47' W 122°21'0 0.0
2017-Oct-03 14:58N 37°47' W 122°21'0 0.0
2017-Oct-03 13:58N 37°47' W 122°22'0 0.1
2017-Oct-03 13:28N 37°47' W 122°21'0 0.1
2017-Oct-03 12:58N 37°48' W 122°21'0 0.3
2017-Oct-03 12:28N 37°48' W 122°22'0 0.2
2017-Oct-03 11:58N 37°48' W 122°22'0 0.0
2017-Oct-03 11:28N 37°48' W 122°22'0 0.0
2017-Oct-03 10:58N 37°48' W 122°22'0 0.1
2017-Oct-03 10:28N 37°48' W 122°22'0 0.0
2017-Oct-03 09:58N 37°48' W 122°22'0 0.0
2017-Oct-03 09:25N 37°48' W 122°22'0 0.0
2017-Oct-03 08:58N 37°48' W 122°22'0 0.0
2017-Oct-03 08:28N 37°48' W 122°22'0 0.0
2017-Oct-03 07:55N 37°48' W 122°22'0 0.1
2017-Oct-03 07:28N 37°48' W 122°22'0 0.1
2017-Oct-03 06:58N 37°48' W 122°22'0 0.0
2017-Oct-03 06:28N 37°48' W 122°22'0 0.2
2017-Oct-03 05:58N 37°48' W 122°22'0 0.2
2017-Oct-03 05:31N 37°47' W 122°22'1 1.5
2017-Oct-03 05:00N 37°48' W 122°22'611.1
2017-Oct-03 04:30N 37°53' W 122°25'5 9.9
2017-Oct-03 04:01N 37°58' W 122°27'510.3
2017-Oct-03 03:30N 38°02' W 122°22'510.5
2017-Oct-03 03:00N 38°04' W 122°16'611.2
2017-Oct-03 02:30N 38°02' W 122°09'510.5
2017-Oct-03 02:00N 38°04' W 122°03'610.9
2017-Oct-03 01:29N 38°03' W 121°56'4 8.5
2017-Oct-03 01:00N 38°02' W 121°51'4 7.5
2017-Oct-03 00:30N 38°02' W 121°46'12 5.1
2017-Oct-02 22:11N 38°03' W 121°32'  
2017-Sep-29 18:10N 37°57' W 121°20'0 0.0
2017-Sep-29 16:34N 37°57' W 121°20'0 0.1
2017-Sep-29 16:28N 37°57' W 121°20'0 0.0
2017-Sep-29 15:58N 37°57' W 121°20'0 0.0
2017-Sep-29 15:28N 37°57' W 121°20'  
Track history (hours):
 
Tides and Currents Weather Stations Pressure Air Temp Water Temp Dewpoint Dewpoint Depression Visibility Wind Speed Wind Dir Waves Ship Positions

Prabhu Sakhawat

Last reported at 2017-Oct-09 14:59 UTC. Time now 2017-Oct-22 05:01 UTC.
Position N 37°40' W 125°27'.
Warning: this ship's position is 12 days out of date.

Length 225 m; draft 11.9 m.

Type: Cargo ship. MMSI: 419099500.

Date/timePositionNaut miles runAvg speedWind from/ knotsBaromVisibWave heightAir tempDewpointWater temp
2017-Oct-09 14:59N 37°40' W 125°27'9 7.8
2017-Oct-09 13:51N 37°40' W 125°16'6 8.4
2017-Oct-09 13:08N 37°39' W 125°09'2 9.1
2017-Oct-09 12:58N 37°39' W 125°07'4 8.8
2017-Oct-09 12:30N 37°39' W 125°02'4 8.6
2017-Oct-09 12:00N 37°39' W 124°56'4 8.5
2017-Oct-09 11:30N 37°39' W 124°51'4 7.9
2017-Oct-09 11:00N 37°38' W 124°46'4 8.1
2017-Oct-09 10:30N 37°38' W 124°41'4 8.4
2017-Oct-09 10:00N 37°38' W 124°36'4 8.1
2017-Oct-09 09:30N 37°38' W 124°30'4 8.1
2017-Oct-09 09:00N 37°37' W 124°25'4 8.3
2017-Oct-09 08:30N 37°37' W 124°20'4 8.2
2017-Oct-09 08:00N 37°37' W 124°15'4 7.9
2017-Oct-09 07:30N 37°37' W 124°10'4 7.9
2017-Oct-09 07:00N 37°37' W 124°05'4 8.0
2017-Oct-09 06:30N 37°37' W 123°60'4 8.1
2017-Oct-09 06:00N 37°36' W 123°55'4 7.6
2017-Oct-09 05:30N 37°36' W 123°50'4 7.5
2017-Oct-09 05:00N 37°36' W 123°45'4 7.6
2017-Oct-09 04:30N 37°36' W 123°41'4 7.5
2017-Oct-09 04:00N 37°35' W 123°36'4 7.1
2017-Oct-09 03:30N 37°35' W 123°31'4 7.5
2017-Oct-09 03:00N 37°35' W 123°27'4 7.7
2017-Oct-09 02:30N 37°35' W 123°22'4 8.6
2017-Oct-09 02:00N 37°34' W 123°16'5 9.0
2017-Oct-09 01:30N 37°34' W 123°11'5 9.1
2017-Oct-09 01:00N 37°34' W 123°05'510.2
2017-Oct-09 00:30N 37°36' W 122°59'510.5
2017-Oct-09 00:00N 37°39' W 122°54'510.2
2017-Oct-08 23:30N 37°42' W 122°48'5 9.9
2017-Oct-08 23:00N 37°44' W 122°43'4 7.3
2017-Oct-08 22:30N 37°46' W 122°39'5 9.6
2017-Oct-08 22:00N 37°48' W 122°33'510.5
2017-Oct-08 21:30N 37°50' W 122°27'3 7.0
2017-Oct-08 21:00N 37°53' W 122°25'1 2.9
2017-Oct-08 20:30N 37°54' W 122°24'2 3.6
2017-Oct-08 20:00N 37°55' W 122°22'0 0.7
2017-Oct-08 19:28N 37°55' W 122°22'0 0.0
2017-Oct-08 18:58N 37°55' W 122°22'0 0.0
2017-Oct-08 18:28N 37°55' W 122°22'0 0.0
2017-Oct-08 17:58N 37°55' W 122°22'0 0.0
2017-Oct-08 17:28N 37°55' W 122°22'0 0.0
2017-Oct-08 16:55N 37°55' W 122°22'0 0.0
2017-Oct-08 16:28N 37°55' W 122°22'0 0.0
2017-Oct-08 15:58N 37°55' W 122°22'0 0.0
2017-Oct-08 15:28N 37°55' W 122°22'0 0.0
2017-Oct-08 14:58N 37°55' W 122°22'0 0.0
2017-Oct-08 14:28N 37°55' W 122°22'0 0.0
2017-Oct-08 13:55N 37°55' W 122°22'0 0.0
2017-Oct-08 13:28N 37°55' W 122°22'0 0.0
2017-Oct-08 12:58N 37°55' W 122°22'0 0.0
2017-Oct-08 12:28N 37°55' W 122°22'0 0.0
2017-Oct-08 11:58N 37°55' W 122°22'0 0.0
2017-Oct-08 11:28N 37°55' W 122°22'0 0.0
2017-Oct-08 10:58N 37°55' W 122°22'0 0.0
2017-Oct-08 10:28N 37°55' W 122°22'0 0.0
2017-Oct-08 09:58N 37°55' W 122°22'0 0.0
2017-Oct-08 09:28N 37°55' W 122°22'0 0.0
2017-Oct-08 08:58N 37°55' W 122°22'0 0.0
2017-Oct-08 08:25N 37°55' W 122°22'0 0.0
2017-Oct-08 07:58N 37°55' W 122°22'0 0.0
2017-Oct-08 07:28N 37°55' W 122°22'0 0.0
2017-Oct-08 06:58N 37°55' W 122°22'0 0.0
2017-Oct-08 06:28N 37°55' W 122°22'0 0.0
2017-Oct-08 05:58N 37°55' W 122°22'0 0.0
2017-Oct-08 05:28N 37°55' W 122°22'0 0.0
2017-Oct-08 04:58N 37°55' W 122°22'0 0.0
2017-Oct-08 04:28N 37°55' W 122°22'0 0.0
2017-Oct-08 03:58N 37°55' W 122°22'0 0.0
2017-Oct-08 03:28N 37°55' W 122°22'0 0.0
2017-Oct-08 02:58N 37°55' W 122°22'0 0.0
2017-Oct-08 02:28N 37°55' W 122°22'0 0.0
2017-Oct-08 01:58N 37°55' W 122°22'0 0.0
2017-Oct-08 01:28N 37°55' W 122°22'0 0.0
2017-Oct-08 00:58N 37°55' W 122°22'0 0.0
2017-Oct-08 00:28N 37°55' W 122°22'0 0.0
2017-Oct-07 23:58N 37°55' W 122°22'0 0.0
2017-Oct-07 23:28N 37°55' W 122°22'0 0.0
2017-Oct-07 22:58N 37°55' W 122°22'0 0.0
2017-Oct-07 22:19N 37°55' W 122°22'0 0.0
2017-Oct-07 21:58N 37°55' W 122°22'0 0.0
2017-Oct-07 21:25N 37°55' W 122°22'0 0.0
2017-Oct-07 20:49N 37°55' W 122°22'0 0.0
2017-Oct-07 20:28N 37°55' W 122°22'0 0.0
2017-Oct-07 19:58N 37°55' W 122°22'0 0.0
2017-Oct-07 19:13N 37°55' W 122°22'0 0.0
2017-Oct-07 18:55N 37°55' W 122°22'0 0.0
2017-Oct-07 18:28N 37°55' W 122°22'0 0.0
2017-Oct-07 17:49N 37°55' W 122°22'0 0.0
2017-Oct-07 17:28N 37°55' W 122°22'0 0.0
2017-Oct-07 16:55N 37°55' W 122°22'0 0.0
2017-Oct-07 16:25N 37°55' W 122°22'0 0.0
2017-Oct-07 15:55N 37°55' W 122°22'0 0.0
2017-Oct-07 15:28N 37°55' W 122°22'0 0.0
2017-Oct-07 14:58N 37°55' W 122°22'0 0.0
2017-Oct-07 14:28N 37°55' W 122°22'0 0.0
2017-Oct-07 13:55N 37°55' W 122°22'0 0.0
2017-Oct-07 13:22N 37°55' W 122°22'0 0.0
2017-Oct-07 12:55N 37°55' W 122°22'0 0.0
2017-Oct-07 12:22N 37°55' W 122°22'0 0.0
2017-Oct-07 11:55N 37°55' W 122°22'0 0.0
2017-Oct-07 11:28N 37°55' W 122°22'0 0.0
2017-Oct-07 10:58N 37°55' W 122°22'0 0.0
2017-Oct-07 10:28N 37°55' W 122°22'0 0.0
2017-Oct-07 09:58N 37°55' W 122°22'0 0.0
2017-Oct-07 09:28N 37°55' W 122°22'0 0.0
2017-Oct-07 08:58N 37°55' W 122°22'0 0.0
2017-Oct-07 08:28N 37°55' W 122°22'0 0.0
2017-Oct-07 07:58N 37°55' W 122°22'0 0.0
2017-Oct-07 07:19N 37°55' W 122°22'0 0.0
2017-Oct-07 06:58N 37°55' W 122°22'0 0.0
2017-Oct-07 06:28N 37°55' W 122°22'0 0.0
2017-Oct-07 05:58N 37°55' W 122°22'0 0.0
2017-Oct-07 05:25N 37°55' W 122°22'0 0.0
2017-Oct-07 04:58N 37°55' W 122°22'0 0.0
2017-Oct-07 04:28N 37°55' W 122°22'0 0.0
2017-Oct-07 03:58N 37°55' W 122°22'0 0.0
2017-Oct-07 03:28N 37°55' W 122°22'0 0.0
2017-Oct-07 02:58N 37°55' W 122°22'0 0.0
2017-Oct-07 02:28N 37°55' W 122°22'0 0.0
2017-Oct-07 01:52N 37°55' W 122°22'0 0.0
2017-Oct-07 01:25N 37°55' W 122°22'0 0.0
2017-Oct-07 00:58N 37°55' W 122°22'0 0.0
2017-Oct-07 00:28N 37°55' W 122°22'0 0.0
2017-Oct-06 23:55N 37°55' W 122°22'0 0.0
2017-Oct-06 23:22N 37°55' W 122°22'0 0.0
2017-Oct-06 22:49N 37°55' W 122°22'0 0.0
2017-Oct-06 22:28N 37°55' W 122°22'0 0.0
2017-Oct-06 21:58N 37°55' W 122°22'0 0.0
2017-Oct-06 21:28N 37°55' W 122°22'0 0.0
2017-Oct-06 20:58N 37°55' W 122°22'0 0.0
2017-Oct-06 20:25N 37°55' W 122°22'0 0.0
2017-Oct-06 19:58N 37°55' W 122°22'0 0.0
2017-Oct-06 19:25N 37°55' W 122°22'0 0.0
2017-Oct-06 18:58N 37°55' W 122°22'0 0.0
2017-Oct-06 18:28N 37°55' W 122°22'0 0.0
2017-Oct-06 17:58N 37°55' W 122°22'0 0.0
2017-Oct-06 17:28N 37°55' W 122°22'0 0.0
2017-Oct-06 16:58N 37°55' W 122°22'0 0.0
2017-Oct-06 16:28N 37°55' W 122°22'0 0.0
2017-Oct-06 15:58N 37°55' W 122°22'0 0.0
2017-Oct-06 15:28N 37°55' W 122°22'0 0.0
2017-Oct-06 14:58N 37°55' W 122°22'0 0.0
2017-Oct-06 14:28N 37°55' W 122°22'0 0.0
2017-Oct-06 13:58N 37°55' W 122°22'0 0.0
2017-Oct-06 13:28N 37°55' W 122°22'0 0.0
2017-Oct-06 12:58N 37°55' W 122°22'0 0.0
2017-Oct-06 12:28N 37°55' W 122°22'0 0.0
2017-Oct-06 11:58N 37°55' W 122°22'0 0.0
2017-Oct-06 11:28N 37°55' W 122°22'0 0.0
2017-Oct-06 10:58N 37°55' W 122°22'0 0.0
2017-Oct-06 10:28N 37°55' W 122°22'0 0.0
2017-Oct-06 09:58N 37°55' W 122°22'0 0.0
2017-Oct-06 09:28N 37°55' W 122°22'0 0.0
2017-Oct-06 08:58N 37°55' W 122°22'0 0.0
2017-Oct-06 08:28N 37°55' W 122°22'0 0.0
2017-Oct-06 07:58N 37°55' W 122°22'0 0.0
2017-Oct-06 07:28N 37°55' W 122°22'0 0.0
2017-Oct-06 06:58N 37°55' W 122°22'0 0.0
2017-Oct-06 06:28N 37°55' W 122°22'0 0.0
2017-Oct-06 05:58N 37°55' W 122°22'0 0.0
2017-Oct-06 05:28N 37°55' W 122°22'0 0.0
2017-Oct-06 04:55N 37°55' W 122°22'0 0.0
2017-Oct-06 04:28N 37°55' W 122°22'0 0.0
2017-Oct-06 03:58N 37°55' W 122°22'0 0.0
2017-Oct-06 03:28N 37°55' W 122°22'0 0.0
2017-Oct-06 02:58N 37°55' W 122°22'0 0.0
2017-Oct-06 02:28N 37°55' W 122°22'0 0.0
2017-Oct-06 01:58N 37°55' W 122°22'0 0.0
2017-Oct-06 01:28N 37°55' W 122°22'0 0.0
2017-Oct-06 00:58N 37°55' W 122°22'0 0.0
2017-Oct-06 00:28N 37°55' W 122°22'0 0.0
2017-Oct-05 23:58N 37°55' W 122°22'0 0.0
2017-Oct-05 23:28N 37°55' W 122°22'0 0.0
2017-Oct-05 22:58N 37°55' W 122°22'0 0.0
2017-Oct-05 22:28N 37°55' W 122°22'0 0.0
2017-Oct-05 21:58N 37°55' W 122°22'0 0.0
2017-Oct-05 21:28N 37°55' W 122°22'0 0.0
2017-Oct-05 20:58N 37°55' W 122°22'0 0.0
2017-Oct-05 20:28N 37°55' W 122°22'0 0.0
2017-Oct-05 19:58N 37°55' W 122°22'0 0.0
2017-Oct-05 19:28N 37°55' W 122°22'0 0.0
2017-Oct-05 18:52N 37°55' W 122°22'0 0.0
2017-Oct-05 18:28N 37°55' W 122°22'0 0.0
2017-Oct-05 17:58N 37°55' W 122°22'0 0.0
2017-Oct-05 17:28N 37°55' W 122°22'0 0.0
2017-Oct-05 17:01N 37°55' W 122°22'2 1.1
2017-Oct-05 15:30N 37°54' W 122°24'1 2.5
2017-Oct-05 15:01N 37°54' W 122°25'4 8.9
2017-Oct-05 14:31N 37°49' W 122°24'2 4.8
2017-Oct-05 14:01N 37°48' W 122°22'0 0.2
2017-Oct-05 13:28N 37°48' W 122°22'0 0.0
2017-Oct-05 12:58N 37°48' W 122°22'0 0.0
2017-Oct-05 12:28N 37°48' W 122°22'0 0.0
2017-Oct-05 11:58N 37°48' W 122°22'0 0.1
2017-Oct-05 11:28N 37°48' W 122°22'0 0.0
2017-Oct-05 10:58N 37°48' W 122°22'0 0.0
2017-Oct-05 10:28N 37°48' W 122°22'0 0.0
2017-Oct-05 09:58N 37°48' W 122°22'0 0.0
2017-Oct-05 09:28N 37°48' W 122°22'0 0.1
2017-Oct-05 08:58N 37°48' W 122°22'0 0.1
2017-Oct-05 08:28N 37°48' W 122°22'0 0.1
2017-Oct-05 07:58N 37°48' W 122°22'0 0.2
2017-Oct-05 07:28N 37°47' W 122°22'0 0.2
2017-Oct-05 06:58N 37°47' W 122°22'0 0.1
2017-Oct-05 06:25N 37°47' W 122°22'0 0.1
2017-Oct-05 05:58N 37°47' W 122°21'0 0.0
2017-Oct-05 05:28N 37°47' W 122°21'0 0.1
2017-Oct-05 04:58N 37°47' W 122°21'0 0.0
2017-Oct-05 04:28N 37°47' W 122°21'0 0.0
2017-Oct-05 03:58N 37°47' W 122°21'0 0.0
2017-Oct-05 03:28N 37°47' W 122°21'0 0.0
2017-Oct-05 02:58N 37°47' W 122°21'0 0.0
2017-Oct-05 02:28N 37°47' W 122°21'0 0.1
2017-Oct-05 01:58N 37°48' W 122°21'0 0.4
2017-Oct-05 01:28N 37°48' W 122°22'0 0.1
2017-Oct-05 00:58N 37°48' W 122°22'0 0.1
2017-Oct-05 00:28N 37°48' W 122°22'0 0.0
2017-Oct-04 23:58N 37°48' W 122°22'0 0.0
2017-Oct-04 23:28N 37°48' W 122°22'0 0.0
2017-Oct-04 22:58N 37°48' W 122°22'0 0.0
2017-Oct-04 22:28N 37°48' W 122°22'0 0.1
2017-Oct-04 21:58N 37°48' W 122°22'0 0.0
2017-Oct-04 21:28N 37°48' W 122°22'0 0.1
2017-Oct-04 20:58N 37°48' W 122°22'0 0.0
2017-Oct-04 20:28N 37°48' W 122°22'0 0.1
2017-Oct-04 19:58N 37°48' W 122°22'0 0.3
2017-Oct-04 19:28N 37°47' W 122°22'0 0.2
2017-Oct-04 18:58N 37°47' W 122°22'0 0.1
2017-Oct-04 18:28N 37°47' W 122°22'0 0.1
2017-Oct-04 17:58N 37°47' W 122°21'0 0.1
2017-Oct-04 17:28N 37°47' W 122°21'0 0.1
2017-Oct-04 16:58N 37°47' W 122°21'0 0.0
2017-Oct-04 16:28N 37°47' W 122°21'0 0.1
2017-Oct-04 15:58N 37°47' W 122°21'0 0.0
2017-Oct-04 15:28N 37°47' W 122°21'0 0.2
2017-Oct-04 14:58N 37°47' W 122°22'0 0.0
2017-Oct-04 14:28N 37°47' W 122°22'0 0.1
2017-Oct-04 13:58N 37°47' W 122°21'0 0.3
2017-Oct-04 13:28N 37°48' W 122°21'0 0.3
2017-Oct-04 12:58N 37°48' W 122°22'0 0.0
2017-Oct-04 12:28N 37°48' W 122°22'0 0.1
2017-Oct-04 11:58N 37°48' W 122°22'0 0.1
2017-Oct-04 11:28N 37°48' W 122°22'0 0.0
2017-Oct-04 10:58N 37°48' W 122°22'0 0.0
2017-Oct-04 10:28N 37°48' W 122°22'0 0.1
2017-Oct-04 09:58N 37°48' W 122°22'0 0.0
2017-Oct-04 09:28N 37°48' W 122°22'0 0.0
2017-Oct-04 08:58N 37°48' W 122°22'0 0.0
2017-Oct-04 08:28N 37°48' W 122°22'0 0.1
2017-Oct-04 07:58N 37°48' W 122°22'0 0.0
2017-Oct-04 07:28N 37°48' W 122°22'0 0.1
2017-Oct-04 06:58N 37°48' W 122°22'0 0.3
2017-Oct-04 06:28N 37°47' W 122°22'0 0.1
2017-Oct-04 05:58N 37°47' W 122°22'0 0.0
2017-Oct-04 05:28N 37°47' W 122°22'0 0.1
2017-Oct-04 04:58N 37°47' W 122°22'0 0.1
2017-Oct-04 04:28N 37°47' W 122°21'0 0.0
2017-Oct-04 03:58N 37°47' W 122°21'0 0.0
2017-Oct-04 03:28N 37°47' W 122°21'0 0.0
2017-Oct-04 02:58N 37°47' W 122°21'0 0.1
2017-Oct-04 02:28N 37°47' W 122°22'0 0.0
2017-Oct-04 01:58N 37°47' W 122°22'0 0.1
2017-Oct-04 01:25N 37°47' W 122°21'0 0.4
2017-Oct-04 00:58N 37°48' W 122°22'0 0.2
2017-Oct-04 00:28N 37°48' W 122°22'0 0.0
2017-Oct-03 23:58N 37°48' W 122°22'0 0.1
2017-Oct-03 23:25N 37°48' W 122°22'0 0.0
2017-Oct-03 22:58N 37°48' W 122°22'0 0.1
2017-Oct-03 22:28N 37°48' W 122°22'0 0.1
2017-Oct-03 21:58N 37°48' W 122°22'0 0.0
2017-Oct-03 21:28N 37°48' W 122°22'0 0.0
2017-Oct-03 20:58N 37°48' W 122°22'0 0.0
2017-Oct-03 20:28N 37°48' W 122°22'0 0.0
2017-Oct-03 19:58N 37°48' W 122°22'0 0.1
2017-Oct-03 19:28N 37°48' W 122°22'0 0.2
2017-Oct-03 18:58N 37°47' W 122°22'0 0.3
2017-Oct-03 18:28N 37°47' W 122°22'0 0.0
2017-Oct-03 17:58N 37°47' W 122°22'0 0.1
2017-Oct-03 17:28N 37°47' W 122°22'0 0.1
2017-Oct-03 16:58N 37°47' W 122°21'0 0.0
2017-Oct-03 16:28N 37°47' W 122°21'0 0.0
2017-Oct-03 15:58N 37°47' W 122°21'0 0.0
2017-Oct-03 15:28N 37°47' W 122°21'0 0.0
2017-Oct-03 14:58N 37°47' W 122°21'0 0.0
2017-Oct-03 13:58N 37°47' W 122°22'0 0.1
2017-Oct-03 13:28N 37°47' W 122°21'0 0.1
2017-Oct-03 12:58N 37°48' W 122°21'0 0.3
2017-Oct-03 12:28N 37°48' W 122°22'0 0.2
2017-Oct-03 11:58N 37°48' W 122°22'0 0.0
2017-Oct-03 11:28N 37°48' W 122°22'0 0.0
2017-Oct-03 10:58N 37°48' W 122°22'0 0.1
2017-Oct-03 10:28N 37°48' W 122°22'0 0.0
2017-Oct-03 09:58N 37°48' W 122°22'0 0.0
2017-Oct-03 09:25N 37°48' W 122°22'0 0.0
2017-Oct-03 08:58N 37°48' W 122°22'0 0.0
2017-Oct-03 08:28N 37°48' W 122°22'0 0.0
2017-Oct-03 07:55N 37°48' W 122°22'0 0.1
2017-Oct-03 07:28N 37°48' W 122°22'0 0.1
2017-Oct-03 06:58N 37°48' W 122°22'0 0.0
2017-Oct-03 06:28N 37°48' W 122°22'0 0.2
2017-Oct-03 05:58N 37°48' W 122°22'0 0.2
2017-Oct-03 05:31N 37°47' W 122°22'1 1.5
2017-Oct-03 05:00N 37°48' W 122°22'611.1
2017-Oct-03 04:30N 37°53' W 122°25'5 9.9
2017-Oct-03 04:01N 37°58' W 122°27'510.3
2017-Oct-03 03:30N 38°02' W 122°22'510.5
2017-Oct-03 03:00N 38°04' W 122°16'611.2
2017-Oct-03 02:30N 38°02' W 122°09'510.5
2017-Oct-03 02:00N 38°04' W 122°03'610.9
2017-Oct-03 01:29N 38°03' W 121°56'4 8.5
2017-Oct-03 01:00N 38°02' W 121°51'4 7.5
2017-Oct-03 00:30N 38°02' W 121°46'12 5.1
2017-Oct-02 22:11N 38°03' W 121°32'  
2017-Sep-29 18:10N 37°57' W 121°20'0 0.0
2017-Sep-29 16:34N 37°57' W 121°20'0 0.1
2017-Sep-29 16:28N 37°57' W 121°20'0 0.0
2017-Sep-29 15:58N 37°57' W 121°20'0 0.0
2017-Sep-29 15:28N 37°57' W 121°20'  

Dump ship's entire track history